Tiempo atmosférico en la estación meteorológica de Daroca, Zaragoza (779 m.)



Fecha
DESCASC
Temp. máxima en grados centígrados (hora)
DESCASC
Temp. mínima en grados centígrados (hora)
DESCASC
Temp. media en grados centígrados
DESCASC
Racha de viento máxima en m/sg (hora)
DESCASC
Velocidad máxima media en intervalos de 10 minutos(hora)
DESCASC
Precipitaciones diarias en mm
DESCASC
Precipitaciones de 00:00 a 06:00 en mm
DESCASC
Precipitaciones de 06:00 a 12:00 en mm
DESCASC
Precipitaciones de 12:00 a 18:00 en mm
DESCASC
Precipitaciones de 18:00 a 24:00 en mm
DESCASC
25-04-2019 13.6 (14:50) 7.9 (23:50) 10.8 15 (05:50) 7.78 (05:10) 1.4 1 0 0.4 0
24-04-2019 15.6 (17:50) 5 (07:20) 10.3 13.61 (22:50) 6.94 (23:30) 0.2 0 0 0 0.2
23-04-2019 13.9 (16:50) 6.8 (22:20) 10.3 14.44 (20:20) 7.78 (20:40) 0 0 0 0 0
22-04-2019 14.6 (17:10) 6.7 (00:00) 10.7 4.44 (16:40) 2.22 (16:40) 0 0 0 0 0
21-04-2019 9.8 (15:50) 6.5 (00:00) 8.2 6.11 (09:20) 3.33 (09:20) 3.8 2.4 0 0 1.4
20-04-2019 15.5 (15:30) 7.8 (00:00) 11.7 10.56 (11:50) 4.17 (12:40) 0.4 0 0 0 0.4
19-04-2019 14.5 (17:00) 8 (00:00) 11.3 17.22 (17:00) 8.33 (16:30) 35.4 28.8 6.6 0 0
18-04-2019 14.7 (18:10) 8.2 (00:00) 11.4 10.83 (14:50) 5.28 (15:00) 20.4 0 0.4 0 20
17-04-2019 23.3 (16:30) 9.1 (00:00) 16.2 8.89 (17:40) 4.44 (17:40) 0 0 0 0 0
16-04-2019 21.8 (18:20) 8.6 (00:00) 15.2 8.33 (20:00) 3.61 (19:30) 0 0 0 0 0
15-04-2019 23.9 (17:40) 7.2 (00:00) 15.5 13.61 (21:40) 6.11 (19:40) 0 0 0 0 0
14-04-2019 22.5 (17:30) 2.2 (00:00) 12.4 12.22 (13:00) 5 (14:10) 0 0 0 0 0
13-04-2019 20.5 (17:20) -1.8 (-00:0) 9.4 7.22 (14:20) 3.61 (13:50) 0 0 0 0 0
12-04-2019 16.2 (17:30) 0.7 (08:20) 8.5 7.22 (15:10) 2.78 (15:50) 0 0 0 0 0
11-04-2019 13.4 (18:10) 1.5 (00:00) 7.4 10.28 (14:40) 4.72 (14:40) 0 0 0 0 0
10-04-2019 11.5 (19:50) 4.4 (00:00) 8 9.17 (12:30) 4.44 (11:20) 2.8 0.2 0 2.6 0
09-04-2019 12.4 (15:20) 3.1 (00:00) 7.7 17.22 (17:50) 5.28 (12:00) 5.8 1.4 0.2 0 4.2
08-04-2019 14.3 (16:20) 6.6 (00:00) 10.5 8.89 (18:10) 3.89 (00:50) 5.2 0 0.2 0.8 4.2
07-04-2019 12.1 (17:30) 4 (00:00) 8.1 11.11 (10:20) 5 (17:30) 0.2 0.2 0 0 0
06-04-2019 10.1 (16:00) 0.7 (00:00) 5.4 12.22 (13:00) 7.22 (13:00) 0.8 0 0 0.2 0.6
05-04-2019 10.2 (13:10) 3.2 (00:00) 6.7 8.61 (11:30) 4.44 (07:30) 4 0 0 2.2 1.8
04-04-2019 13.5 (17:30) -2.7 (-00:0) 5.4 8.61 (12:10) 4.44 (19:00) 0.2 0.2 0 0 0
03-04-2019 9.8 (12:00) 2 (23:20) 5.9 8.89 (19:50) 4.17 (19:50) 0.6 0 0 0 0.6
02-04-2019 16.8 (16:10) 6.4 (00:00) 11.6 11.11 (16:50) 3.89 (16:50) 2.2 0 0.2 1.6 0.4
01-04-2019 14.3 (14:40) 5.9 (00:00) 10.1 4.17 (03:10) 2.22 (02:50) 9.4 3.2 0.4 5 0.8
31-03-2019 10.1 (13:20) 3.1 (00:00) 6.6 5 (14:10) 2.5 (14:30) 10.4 0 0 5.2 5.2
30-03-2019 18.2 (15:40) 1 (00:00) 9.6 8.33 (18:20) 4.17 (17:50) 0 0 0 0 0
29-03-2019 18.8 (15:30) 0.1 (00:00) 9.4 12.22 (17:40) 5.56 (17:40) 0 0 0 0 0
28-03-2019 18.4 (15:40) -2.2 (-00:0) 8.1 5.83 (18:20) 2.78 (18:00) 0 0 0 0 0
27-03-2019 17.3 (15:30) -3.1 (-00:0) 7.1 6.39 (15:10) 2.78 (15:20) 0 0 0 0 0

Gráficas

Temp. máximas Temp. mínimas Temp. medias Precipitaciones Rachas de viento máximas Velocidades máximas media en intervalos de 10 minutos

Datos horarios

Fecha y hora oficial Temperatura (ºC) Velocidad del viento (km/h) Dirección del viento Racha (km/h) Dirección de racha Precipitación (mm) Presión (hPa) Tendencia (hPa) Humedad (%)
2019-04-25 23:00:00 8.1 4 Oeste 25 Sudoeste 0 -- -- 69
2019-04-25 22:00:00 10.1 13 Sudoeste 32 Sudoeste 0 -- -- 55
2019-04-25 21:00:00 10.3 12 Sudoeste 26 Sudoeste 0 -- -- 56
2019-04-25 20:00:00 10.7 4 Norte 41 Sudoeste 0 -- -- 58
2019-04-25 19:00:00 11.5 24 Oeste 45 Oeste 0 -- -- 52
2019-04-25 18:00:00 11.8 24 Sudoeste 40 Sudoeste 0.2 -- -- 55
2019-04-25 17:00:00 8.6 22 Oeste 51 Sudoeste 0.2 -- -- 74
2019-04-25 16:00:00 10.2 7 Noroeste 28 Sudoeste 0 -- -- 62
2019-04-25 15:00:00 12.3 18 Oeste 53 Oeste 0 -- -- 54
2019-04-25 14:00:00 12.9 21 Oeste 46 Sudoeste 0 -- -- 49
2019-04-25 13:00:00 12.4 21 Oeste 47 Oeste 0 -- -- 49
2019-04-25 12:00:00 11.9 20 Oeste 40 Sudoeste 0 -- -- 50
2019-04-25 11:00:00 10.6 21 Sudoeste 44 Sudoeste 0 -- -- 53
2019-04-25 10:00:00 10.1 14 Sudoeste 33 Sudoeste 0 -- -- 59
2019-04-25 09:00:00 8.5 16 Sudoeste 37 Sudoeste 0 -- -- 65
2019-04-25 08:00:00 8.6 19 Sudoeste 44 Sudoeste 0 -- -- 64
2019-04-25 07:00:00 9.5 21 Oeste 50 Sudoeste 0 -- -- 59
2019-04-25 06:00:00 9.5 27 Oeste 54 Sudoeste 0.2 -- -- 68
2019-04-25 05:00:00 10.9 28 Sudoeste 51 Sudoeste 0.6 -- -- 75
2019-04-25 04:00:00 12.8 10 Oeste 31 Oeste 0 -- -- 68
2019-04-25 03:00:00 12.1 8 Oeste 30 Oeste 0 -- -- 72
2019-04-25 02:00:00 11.9 9 Oeste 28 Sur 0.2 -- -- 76
2019-04-25 01:00:00 12.6 13 Oeste 28 Oeste 0 -- -- 68
2019-04-25 00:00:00 11.3 18 Sudoeste 43 Oeste 0.2 -- -- 75
2019-04-24 23:00:00 13.3 23 Oeste 49 Oeste 0 -- -- 63
2019-04-24 22:00:00 13.6 17 Oeste 44 Oeste 0 -- -- 60
2019-04-24 21:00:00 13.6 14 Oeste 42 Oeste 0 -- -- 59
2019-04-24 20:00:00 13.5 11 Oeste 36 Sudoeste 0 -- -- 61
2019-04-24 19:00:00 15.3 14 Oeste 42 Noroeste 0 -- -- 53
2019-04-24 18:00:00 15.4 14 Oeste 44 Oeste 0 -- -- 55
2019-04-24 17:00:00 14.9 15 Oeste 43 Oeste 0 -- -- 54
2019-04-24 16:00:00 15 12 Oeste 42 Oeste 0 -- -- 53
2019-04-24 15:00:00 14.1 15 Oeste 47 Noroeste 0 -- -- 55
2019-04-24 14:00:00 12 17 Oeste 47 Oeste 0 -- -- 58
2019-04-24 13:00:00 8.9 12 Oeste 40 Sudoeste 0 -- -- 67
2019-04-24 12:00:00 8.3 8 Oeste 28 Oeste 0 -- -- 60
2019-04-24 11:00:00 7.4 9 Oeste 27 Sudoeste 0 -- -- 61
2019-04-24 10:00:00 6.7 7 Sudoeste 29 Sudoeste 0 -- -- 63
2019-04-24 09:00:00 6.3 6 Oeste 19 Oeste 0 -- -- 66
2019-04-24 08:00:00 5.3 8 Oeste 14 Sudoeste 0 -- -- 75
2019-04-24 07:00:00 5.4 6 Sudoeste 23 Oeste 0 -- -- 70
2019-04-24 06:00:00 5.6 9 Sudoeste 44 Sudoeste 0 -- -- 70
2019-04-24 05:00:00 5.9 12 Oeste 30 Sudoeste 0 -- -- 72
2019-04-24 04:00:00 6.1 11 Oeste 42 Sudoeste 0 -- -- 71
2019-04-24 03:00:00 6.3 19 Oeste 39 Sudoeste 0 -- -- 71
2019-04-24 02:00:00 6.7 15 Oeste 29 Sudoeste 0 -- -- 73
2019-04-24 01:00:00 7.2 7 Oeste 32 Sudoeste 0 -- -- 69
2019-04-24 00:00:00 7.4 10 Oeste 24 Sudoeste 0 -- -- 66
2019-04-23 23:00:00 7.5 12 Sudoeste 24 Sudoeste 0 -- -- 67
2019-04-23 22:00:00 7.1 5 Nordeste 26 Oeste 0 -- -- 68
2019-04-23 21:00:00 8.1 18 Oeste 52 Sudoeste 0 -- -- 60
2019-04-23 20:00:00 11.1 21 Sudoeste 46 Sudoeste 0 -- -- 50
2019-04-23 19:00:00 10.7 20 Sudoeste 45 Sudoeste 0 -- -- 61
2019-04-23 18:00:00 12.9 11 Oeste 28 Sudoeste 0 -- -- 54
2019-04-23 17:00:00 13.8 8 Oeste 23 Oeste 0 -- -- 53
2019-04-23 16:00:00 12.5 2 Nordeste 34 Sudoeste 0 -- -- 58
2019-04-23 15:00:00 12.1 13 Oeste 41 Sudoeste 0 -- -- 58
2019-04-23 14:00:00 12.5 22 Oeste 37 Sudoeste 0 -- -- 64
2019-04-23 13:00:00 12.7 6 Oeste 21 Oeste 0 -- -- 64
2019-04-23 12:00:00 13.3 3 Oeste 17 Sudoeste 0 -- -- 64
2019-04-23 11:00:00 13.4 4 Sudeste 11 Sudeste 0 -- -- 68
2019-04-23 10:00:00 10.9 4 Oeste 10 Sudoeste 0 -- -- 79
2019-04-23 09:00:00 9.8 3 Sudoeste 10 Sudoeste 0 -- -- 79
2019-04-23 08:00:00 8.8 3 Oeste 10 Oeste 0 -- -- 82
2019-04-23 07:00:00 8.7 4 Sudoeste 16 Sudoeste 0 -- -- 82
2019-04-23 06:00:00 9.1 5 Oeste 14 Sudoeste 0 -- -- 82
2019-04-23 05:00:00 8.4 2 Sur 7 Nordeste 0 -- -- 87
2019-04-23 04:00:00 8.2 3 Nordeste 8 Nordeste 0 -- -- 86
2019-04-23 03:00:00 9.1 3 Nordeste 9 Norte 0 -- -- 83
2019-04-23 02:00:00 10 4 Nordeste 14 Nordeste 0 -- -- 81
2019-04-23 01:00:00 11.6 3 Nordeste 12 Oeste 0 -- -- 73
2019-04-23 00:00:00 11.6 2 Noroeste 9 Sur 0 -- -- 77
2019-04-22 23:00:00 12 0 Calma 10 Sur 0 -- -- 74
2019-04-22 22:00:00 12.4 0 Calma 5 Nordeste 0 -- -- 73
2019-04-22 21:00:00 12.9 2 Este 9 Nordeste 0 -- -- 72
2019-04-22 20:00:00 13.7 3 Nordeste 6 Nordeste 0 -- -- 64
2019-04-22 19:00:00 13.8 3 Sudoeste 6 Noroeste 0 -- -- 64
2019-04-22 18:00:00 14.4 3 Este 13 Sudoeste 0 -- -- 61
2019-04-22 17:00:00 14.2 4 Oeste 16 Oeste 0 -- -- 60
2019-04-22 16:00:00 13.1 2 Este 9 Nordeste 0 -- -- 67
2019-04-22 15:00:00 12.1 3 Nordeste 10 Noroeste 0 -- -- 66
2019-04-22 14:00:00 12.4 3 Nordeste 13 Este 0 -- -- 64
2019-04-22 13:00:00 11.2 0 Calma 6 Noroeste 0 -- -- 74
2019-04-22 12:00:00 9.4 0 Calma 6 Sur 0 -- -- 85
2019-04-22 11:00:00 8.5 2 Sudoeste 5 Sudoeste 0 -- -- 92
2019-04-22 10:00:00 7.7 2 Oeste 4 Oeste 0 -- -- 93
2019-04-22 09:00:00 7 0 Calma 5 Sur 0 -- -- 95
2019-04-22 08:00:00 6.8 0 Calma 6 Nordeste 0 -- -- 93
2019-04-22 07:00:00 7.1 2 Norte 6 Sudoeste 0 -- -- 93
2019-04-22 06:00:00 7.2 3 Sur 6 Sur 0 -- -- 93
2019-04-22 05:00:00 7.2 0 Calma 9 Oeste 0 -- -- 94
2019-04-22 04:00:00 7.3 2 Noroeste 6 Oeste 0 -- -- 93
2019-04-22 03:00:00 7.8 3 Noroeste 7 Oeste 0 -- -- 90
2019-04-22 02:00:00 7.9 5 Oeste 13 Oeste 0 -- -- 91
2019-04-22 01:00:00 8 2 Norte 13 Oeste 0 -- -- 91
2019-04-22 00:00:00 8.1 5 Oeste 10 Oeste 0 -- -- 91
2019-04-21 23:00:00 8.2 4 Oeste 8 Oeste 0 -- -- 89
2019-04-21 22:00:00 8.4 0 Calma 6 Noroeste 0 -- -- 90
2019-04-21 21:00:00 8.4 2 Norte 7 Noroeste 0.2 -- -- 89
2019-04-21 20:00:00 8.5 2 Noroeste 13 Nordeste 0 -- -- 90
2019-04-21 19:00:00 8.5 5 Norte 17 Nordeste 1.2 -- -- 89
2019-04-21 18:00:00 8.9 6 Nordeste 15 Nordeste 0 -- -- 84
2019-04-21 17:00:00 9.2 6 Nordeste 18 Norte 0 -- -- 79
2019-04-21 16:00:00 9.8 7 Nordeste 17 Norte 0 -- -- 75
2019-04-21 15:00:00 8.9 4 Norte 19 Norte 0 -- -- 82
2019-04-21 14:00:00 8.5 6 Norte 17 Norte 0 -- -- 82
2019-04-21 13:00:00 8.1 8 Norte 19 Nordeste 0 -- -- 84
2019-04-21 12:00:00 7.7 6 Nordeste 18 Nordeste 0 -- -- 88
2019-04-21 11:00:00 7.5 8 Nordeste 19 Norte 0 -- -- 88
2019-04-21 10:00:00 7.3 8 Nordeste 22 Nordeste 0 -- -- 89
2019-04-21 09:00:00 7.2 8 Nordeste 18 Norte 0 -- -- 89
2019-04-21 08:00:00 7.1 6 Nordeste 16 Nordeste 0 -- -- 90
2019-04-21 07:00:00 7 9 Nordeste 19 Nordeste 0 -- -- 90
2019-04-21 06:00:00 7.1 0 Calma 14 Nordeste 0 -- -- 90
2019-04-21 05:00:00 7.1 5 Nordeste 13 Nordeste 0 -- -- 90
2019-04-21 04:00:00 7 4 Nordeste 17 Nordeste 0.2 -- -- 90
2019-04-21 03:00:00 6.6 0 Calma 6 Noroeste 0.4 -- -- 89
2019-04-21 02:00:00 6.6 3 Oeste 10 Nordeste 1.2 -- -- 88
2019-04-21 01:00:00 6.9 3 Nordeste 10 Sudeste 0.6 -- -- 82
2019-04-21 00:00:00 7.8 4 Sudeste 15 Sudeste 0.4 -- -- 81
2019-04-20 23:00:00 8.8 4 Este 15 Sudeste 0 -- -- 76
2019-04-20 22:00:00 9.4 4 Sudeste 24 Sudeste 0 -- -- 69
2019-04-20 21:00:00 9.8 9 Este 21 Sudeste 0 -- -- 67
2019-04-20 20:00:00 10.8 8 Este 27 Este 0 -- -- 62
2019-04-20 19:00:00 12.3 15 Este 31 Sudeste 0 -- -- 54
2019-04-20 18:00:00 14.4 10 Este 28 Nordeste 0 -- -- 47
2019-04-20 17:00:00 14.6 10 Nordeste 26 Este 0 -- -- 46
2019-04-20 16:00:00 15.1 10 Este 37 Nordeste 0 -- -- 45
2019-04-20 15:00:00 15 9 Este 33 Nordeste 0 -- -- 46
2019-04-20 14:00:00 14.6 13 Este 34 Este 0 -- -- 46
2019-04-20 13:00:00 15 15 Nordeste 38 Nordeste 0 -- -- 45
2019-04-20 12:00:00 14.7 13 Nordeste 38 Este 0 -- -- 46
2019-04-20 11:00:00 13.4 10 Nordeste 28 Nordeste 0 -- -- 50
2019-04-20 10:00:00 11 5 Oeste 14 Sudoeste 0 -- -- 62
2019-04-20 09:00:00 9.6 4 Sur 14 Nordeste 0 -- -- 70
2019-04-20 08:00:00 9.1 2 Norte 10 Oeste 0 -- -- 73
2019-04-20 07:00:00 9.3 3 Oeste 10 Sudeste 0 -- -- 74
2019-04-20 06:00:00 9.1 4 Sudoeste 8 Sudoeste 0 -- -- 75
2019-04-20 05:00:00 8.8 0 Calma 6 Nordeste 0 -- -- 78
2019-04-20 04:00:00 8.6 0 Calma 10 Este 0 -- -- 78
2019-04-20 03:00:00 9.1 2 Nordeste 9 Oeste 0 -- -- 76
2019-04-20 02:00:00 10.1 4 Oeste 10 Sudeste 0 -- -- 71
2019-04-20 01:00:00 10.7 5 Sudeste 18 Este 0 -- -- 66
2019-04-20 00:00:00 11.2 7 Este 22 Nordeste 0 -- -- 63
2019-04-19 23:00:00 11.7 9 Este 35 Este 0 -- -- 60
2019-04-19 22:00:00 12.1 16 Este 33 Este 0 -- -- 57
2019-04-19 21:00:00 12.5 14 Este 39 Este 0 -- -- 57
2019-04-19 20:00:00 13 13 Este 37 Sudeste 0 -- -- 56
2019-04-19 19:00:00 14 17 Este 42 Este 0 -- -- 53
2019-04-19 18:00:00 14.1 23 Este 55 Este 0 -- -- 55
2019-04-19 17:00:00 14.5 28 Este 62 Nordeste 0 -- -- 54
2019-04-19 16:00:00 14 22 Nordeste 53 Nordeste 0 -- -- 58
2019-04-19 15:00:00 13.6 21 Este 59 Este 0 -- -- 62
2019-04-19 14:00:00 13 21 Este 46 Este 0 -- -- 68
2019-04-19 13:00:00 11.9 18 Este 46 Este 0 -- -- 78
2019-04-19 12:00:00 10.6 12 Este 32 Este 0 -- -- 88
2019-04-19 11:00:00 10.2 12 Nordeste 29 Nordeste 0.2 -- -- 91
2019-04-19 10:00:00 8.7 0 Calma 10 Sudoeste 0.2 -- -- 97
2019-04-19 09:00:00 8.5 0 Calma 9 Nordeste 1.6 -- -- 95
2019-04-19 08:00:00 8.4 4 Nordeste 13 Norte 1.8 -- -- 95
2019-04-19 07:00:00 8.5 0 Calma 7 Este 2.8 -- -- 96
2019-04-19 06:00:00 8.5 2 Este 15 Nordeste 3.8 -- -- 95
2019-04-19 05:00:00 8.5 7 Nordeste 17 Este 4 -- -- 96
2019-04-19 04:00:00 8.3 2 Nordeste 20 Nordeste 4.2 -- -- 97
2019-04-19 03:00:00 8.2 4 Norte 18 Nordeste 4 -- -- 98
2019-04-19 02:00:00 8 5 Nordeste 15 Nordeste 4 -- -- 98
2019-04-19 01:00:00 8.2 6 Nordeste 13 Nordeste 8.8 -- -- 98
2019-04-19 00:00:00 8.2 5 Nordeste 13 Norte 7.8 -- -- 97
2019-04-18 23:00:00 8.5 4 Sudeste 10 Este 4.6 -- -- 94
2019-04-18 22:00:00 9 2 Oeste 16 Oeste 3.6 -- -- 86
2019-04-18 21:00:00 10.3 5 Sudoeste 35 Nordeste 4 -- -- 85
2019-04-18 20:00:00 13.2 10 Este 30 Este 0 -- -- 64
2019-04-18 19:00:00 13.7 13 Este 37 Este 0 -- -- 57
2019-04-18 18:00:00 14.5 9 Este 22 Este 0 -- -- 52
2019-04-18 17:00:00 13.6 11 Nordeste 27 Nordeste 0 -- -- 63
2019-04-18 16:00:00 13.3 9 Nordeste 35 Este 0 -- -- 66
2019-04-18 15:00:00 13.9 19 Nordeste 39 Nordeste 0 -- -- 61
2019-04-18 14:00:00 13.6 13 Nordeste 36 Este 0 -- -- 65
2019-04-18 13:00:00 13.4 15 Nordeste 31 Este 0 -- -- 66
2019-04-18 12:00:00 12.6 6 Nordeste 22 Este 0 -- -- 71
2019-04-18 11:00:00 11.2 6 Norte 14 Norte 0 -- -- 80
2019-04-18 10:00:00 9.8 3 Noroeste 9 Nordeste 0 -- -- 87
2019-04-18 09:00:00 9.1 6 Norte 18 Nordeste 0.4 -- -- 87
2019-04-18 08:00:00 9.6 8 Nordeste 16 Nordeste 0 -- -- 81
2019-04-18 07:00:00 10.5 0 Calma 6 Norte 0 -- -- 64
2019-04-18 06:00:00 11.5 0 Calma 12 Este 0 -- -- 60
2019-04-18 05:00:00 12.1 3 Este 13 Oeste 0 -- -- 58
2019-04-18 04:00:00 12.5 4 Este 15 Sur 0 -- -- 57
2019-04-18 03:00:00 12.6 3 Sudeste 15 Sur 0 -- -- 67
2019-04-18 02:00:00 13.5 5 Este 18 Sudeste 0 -- -- 63
2019-04-18 01:00:00 13.9 4 Este 16 Oeste 0 -- -- 61
2019-04-18 00:00:00 14.4 5 Noroeste 18 Sudeste 0 -- -- 61
2019-04-17 23:00:00 16.1 4 Oeste 10 Nordeste 0 -- -- 55
2019-04-17 22:00:00 15.8 4 Nordeste 15 Nordeste 0 -- -- 55
2019-04-17 21:00:00 17.1 9 Nordeste 16 Nordeste 0 -- -- 57
2019-04-17 20:00:00 18.3 5 Este 26 Nordeste 0 -- -- 54
2019-04-17 19:00:00 20.2 12 Nordeste 27 Este 0 -- -- 49
2019-04-17 18:00:00 21.1 12 Nordeste 32 Nordeste 0 -- -- 45
2019-04-17 17:00:00 23.1 5 Este 25 Sudeste 0 -- -- 34
2019-04-17 16:00:00 22 6 Este 19 Sudeste 0 -- -- 34
2019-04-17 15:00:00 21.7 5 Sudeste 20 Sur 0 -- -- 34
2019-04-17 14:00:00 21.3 6 Este 24 Sudeste 0 -- -- 35
2019-04-17 13:00:00 20 5 Este 21 Sudoeste 0 -- -- 37
2019-04-17 12:00:00 18.2 6 Este 21 Este 0 -- -- 43
2019-04-17 11:00:00 15.5 6 Nordeste 27 Sudeste 0 -- -- 51
2019-04-17 10:00:00 13.3 7 Este 22 Sur 0 -- -- 56
2019-04-17 09:00:00 11.2 4 Este 10 Sur 0 -- -- 66
2019-04-17 08:00:00 9.4 5 Nordeste 10 Este 0 -- -- 76
2019-04-17 07:00:00 9.7 3 Nordeste 10 Este 0 -- -- 75
2019-04-17 06:00:00 10.3 3 Este 18 Este 0 -- -- 72
2019-04-17 05:00:00 10.7 4 Este 22 Sudeste 0 -- -- 72
2019-04-17 04:00:00 11.2 7 Nordeste 23 Sudeste 0 -- -- 72
2019-04-17 03:00:00 11.5 6 Este 24 Sudeste 0 -- -- 72
2019-04-17 02:00:00 11.9 7 Sudeste 22 Sur 0 -- -- 72
2019-04-17 01:00:00 12.5 6 Sudeste 19 Sudoeste 0 -- -- 70
2019-04-17 00:00:00 12.3 2 Nordeste 11 Nordeste 0 -- -- 68
2019-04-16 23:00:00 13.5 4 Este 10 Sur 0 -- -- 62
2019-04-16 22:00:00 14.2 2 Nordeste 22 Este 0 -- -- 54
2019-04-16 21:00:00 15.5 10 Nordeste 24 Este 0 -- -- 48
2019-04-16 20:00:00 17.2 13 Nordeste 30 Este 0 -- -- 44
2019-04-16 19:00:00 19.6 9 Nordeste 25 Nordeste 0 -- -- 37
2019-04-16 18:00:00 21.4 4 Oeste 12 Sur 0 -- -- 25
2019-04-16 17:00:00 21.1 5 Sur 21 Sudoeste 0 -- -- 27
2019-04-16 16:00:00 19.5 3 Este 17 Sudeste 0 -- -- 34
2019-04-16 15:00:00 18.7 5 Nordeste 16 Nordeste 0 -- -- 32
2019-04-16 14:00:00 17.2 6 Noroeste 17 Norte 0 -- -- 38
2019-04-16 13:00:00 15.8 5 Este 11 Sur 0 -- -- 48
2019-04-16 12:00:00 15.1 4 Noroeste 12 Sudeste 0 -- -- 52
2019-04-16 11:00:00 13.6 4 Nordeste 10 Nordeste 0 -- -- 58
2019-04-16 10:00:00 11.9 3 Este 10 Sudeste 0 -- -- 66
2019-04-16 09:00:00 9.6 2 Nordeste 7 Norte 0 -- -- 79
2019-04-16 08:00:00 8.9 2 Este 8 Nordeste 0 -- -- 80
2019-04-16 07:00:00 9.1 4 Nordeste 12 Nordeste 0 -- -- 79
2019-04-16 06:00:00 9.7 3 Norte 12 Nordeste 0 -- -- 82
2019-04-16 05:00:00 9.6 6 Noroeste 15 Norte 0 -- -- 82
2019-04-16 04:00:00 9.6 8 Nordeste 18 Nordeste 0 -- -- 84
2019-04-16 03:00:00 10.4 8 Nordeste 19 Este 0 -- -- 76
2019-04-16 02:00:00 12.9 8 Oeste 23 Oeste 0 -- -- 58
2019-04-16 01:00:00 13.5 10 Oeste 28 Oeste 0 -- -- 59
2019-04-16 00:00:00 14.3 9 Oeste 24 Oeste 0 -- -- 59
2019-04-15 23:00:00 15.4 9 Sudoeste 41 Oeste 0 -- -- 61
2019-04-15 22:00:00 17.9 13 Oeste 49 Sudoeste 0 -- -- 50
2019-04-15 21:00:00 20.7 16 Sudoeste 37 Sudoeste 0 -- -- 33
2019-04-15 20:00:00 21.9 16 Oeste 37 Sudoeste 0 -- -- 34
2019-04-15 19:00:00 23.4 15 Oeste 39 Sudoeste 0 -- -- 33
2019-04-15 18:00:00 23.6 16 Oeste 35 Sudoeste 0 -- -- 33
2019-04-15 17:00:00 22.8 3 Sudoeste 17 Sur 0 -- -- 41
2019-04-15 16:00:00 22.6 7 Oeste 22 Sudoeste 0 -- -- 41
2019-04-15 15:00:00 22 5 Sudeste 20 Sur 0 -- -- 43
2019-04-15 14:00:00 22.1 6 Sudoeste 19 Sur 0 -- -- 42
2019-04-15 13:00:00 21.8 6 Sur 21 Sudeste 0 -- -- 44
2019-04-15 12:00:00 20.6 8 Este 26 Sudeste 0 -- -- 45
2019-04-15 11:00:00 18.3 5 Sudeste 19 Sudeste 0 -- -- 52
2019-04-15 10:00:00 14.8 2 Oeste 8 Oeste 0 -- -- 63
2019-04-15 09:00:00 10.5 3 Oeste 9 Oeste 0 -- -- 79
2019-04-15 08:00:00 7.4 0 Calma 7 Nordeste 0 -- -- 89
2019-04-15 07:00:00 7.6 2 Nordeste 5 Norte 0 -- -- 89
2019-04-15 06:00:00 7.8 0 Calma 5 Este 0 -- -- 89
2019-04-15 05:00:00 7.9 2 Este 5 Este 0 -- -- 88
2019-04-15 04:00:00 8.2 0 Calma 4 Sudeste 0 -- -- 87
2019-04-15 03:00:00 9.1 0 Calma 6 Nordeste 0 -- -- 85
2019-04-15 02:00:00 9.6 3 Nordeste 9 Norte 0 -- -- 84
2019-04-15 01:00:00 10.6 3 Este 6 Nordeste 0 -- -- 80
2019-04-15 00:00:00 12.3 3 Este 6 Este 0 -- -- 75
2019-04-14 23:00:00 14.2 3 Nordeste 8 Norte 0 -- -- 68
2019-04-14 22:00:00 15.9 2 Este 19 Nordeste 0 -- -- 60
2019-04-14 21:00:00 18 8 Nordeste 23 Este 0 -- -- 51
2019-04-14 20:00:00 20 8 Nordeste 18 Este 0 -- -- 45
2019-04-14 19:00:00 22 9 Oeste 23 Oeste 0 -- -- 40
2019-04-14 18:00:00 22.3 12 Oeste 26 Noroeste 0 -- -- 38
2019-04-14 17:00:00 22.4 10 Oeste 34 Oeste 0 -- -- 40
2019-04-14 16:00:00 21.7 8 Oeste 32 Sudoeste 0 -- -- 43
2019-04-14 15:00:00 21 10 Noroeste 37 Sudoeste 0 -- -- 44
2019-04-14 14:00:00 20 16 Sudoeste 37 Sudoeste 0 -- -- 46
2019-04-14 13:00:00 18.4 14 Oeste 44 Oeste 0 -- -- 48
2019-04-14 12:00:00 16.4 7 Oeste 22 Oeste 0 -- -- 57
2019-04-14 11:00:00 14.4 4 Sur 21 Sudoeste 0 -- -- 58
2019-04-14 10:00:00 9.6 3 Nordeste 7 Norte 0 -- -- 57
2019-04-14 09:00:00 4.7 0 Calma 5 Oeste 0 -- -- 67
2019-04-14 08:00:00 2.9 2 Este 9 Sudeste 0 -- -- 76
2019-04-14 07:00:00 2.7 2 Este 6 Norte 0 -- -- 75
2019-04-14 06:00:00 2.3 0 Calma 5 Este 0 -- -- 75
2019-04-14 05:00:00 2.3 2 Nordeste 4 Nordeste 0 -- -- 74
2019-04-14 04:00:00 2.3 3 Nordeste 6 Nordeste 0 -- -- 72
2019-04-14 03:00:00 2.8 2 Este 5 Este 0 -- -- 70
2019-04-14 02:00:00 3.5 2 Este 6 Este 0 -- -- 66
2019-04-14 01:00:00 4.6 3 Nordeste 8 Nordeste 0 -- -- 61
2019-04-14 00:00:00 5.9 3 Este 8 Nordeste 0 -- -- 57
2019-04-13 23:00:00 8 2 Nordeste 5 Este 0 -- -- 48
2019-04-13 22:00:00 10.1 2 Nordeste 8 Norte 0 -- -- 42
2019-04-13 21:00:00 13.9 2 Nordeste 7 Norte 0 -- -- 33
2019-04-13 20:00:00 18.8 2 Norte 10 Noroeste 0 -- -- 21
2019-04-13 19:00:00 20.2 7 Oeste 17 Oeste 0 -- -- 12
2019-04-13 18:00:00 20.2 4 Noroeste 19 Nordeste 0 -- -- 11
2019-04-13 17:00:00 19.7 6 Norte 19 Oeste 0 -- -- 12
2019-04-13 16:00:00 18.8 8 Oeste 23 Sudoeste 0 -- -- 14
2019-04-13 15:00:00 17.4 11 Sudoeste 26 Sudoeste 0 -- -- 17
2019-04-13 14:00:00 15.9 10 Sudoeste 22 Sudoeste 0 -- -- 24
2019-04-13 13:00:00 13.9 5 Sudoeste 17 Sudoeste 0 -- -- 31
2019-04-13 12:00:00 11.9 6 Sudoeste 11 Sudoeste 0 -- -- 38
2019-04-13 11:00:00 8.1 3 Sudoeste 6 Sudoeste 0 -- -- 51
2019-04-13 10:00:00 4.2 2 Oeste 5 Noroeste 0 -- -- 73
2019-04-13 09:00:00 0.4 0 Calma 4 Este 0 -- -- 89
2019-04-13 08:00:00 -1.7 0 Calma 5 Este 0 -- -- 89
2019-04-13 07:00:00 -1.4 0 Calma 5 Este 0 -- -- 89
2019-04-13 06:00:00 -0.9 2 Este 6 Este 0 -- -- 89
2019-04-13 05:00:00 -0.5 0 Calma 6 Este 0 -- -- 88
2019-04-13 04:00:00 0.2 3 Este 5 Este 0 -- -- 87
2019-04-13 03:00:00 1.1 0 Calma 6 Nordeste 0 -- -- 86
2019-04-13 02:00:00 2.1 4 Nordeste 9 Sudeste 0 -- -- 83
2019-04-13 01:00:00 3.1 0 Calma 7 Nordeste 0 -- -- 80
2019-04-13 00:00:00 4.4 2 Nordeste 6 Nordeste 0 -- -- 76
2019-04-12 23:00:00 6.3 3 Nordeste 8 Nordeste 0 -- -- 70
2019-04-12 22:00:00 8.6 2 Este 10 Nordeste 0 -- -- 59
2019-04-12 21:00:00 11 5 Nordeste 16 Nordeste 0 -- -- 52
2019-04-12 20:00:00 13.9 9 Nordeste 17 Nordeste 0 -- -- 42
2019-04-12 19:00:00 15.8 6 Norte 21 Oeste 0 -- -- 34
2019-04-12 18:00:00 15.9 7 Nordeste 20 Nordeste 0 -- -- 36
2019-04-12 17:00:00 15.8 5 Noroeste 23 Nordeste 0 -- -- 36
2019-04-12 16:00:00 14.6 6 Nordeste 26 Nordeste 0 -- -- 40
2019-04-12 15:00:00 13.2 6 Noroeste 21 Norte 0 -- -- 44
2019-04-12 14:00:00 11.7 7 Oeste 21 Oeste 0 -- -- 49
2019-04-12 13:00:00 10.9 7 Norte 19 Noroeste 0 -- -- 52
2019-04-12 12:00:00 9 9 Oeste 21 Oeste 0 -- -- 59
2019-04-12 11:00:00 7.1 4 Oeste 16 Oeste 0 -- -- 70
2019-04-12 10:00:00 5.4 8 Sudoeste 12 Sudoeste 0 -- -- 77
2019-04-12 09:00:00 2 0 Calma 6 Este 0 -- -- 89
2019-04-12 08:00:00 0.8 0 Calma 6 Este 0 -- -- 89
2019-04-12 07:00:00 1.4 2 Este 4 Sudeste 0 -- -- 89
2019-04-12 06:00:00 2.7 0 Calma 8 Sur 0 -- -- 87
2019-04-12 05:00:00 3.6 0 Calma 8 Oeste 0 -- -- 85
2019-04-12 04:00:00 3.5 0 Calma 5 Oeste 0 -- -- 85
2019-04-12 03:00:00 2.5 2 Este 9 Nordeste 0 -- -- 86
2019-04-12 02:00:00 3.6 3 Este 8 Noroeste 0 -- -- 81
2019-04-12 01:00:00 4.9 0 Calma 7 Noroeste 0 -- -- 77
2019-04-12 00:00:00 6.2 0 Calma 9 Nordeste 0 -- -- 71
2019-04-11 23:00:00 6.8 3 Norte 11 Oeste 0 -- -- 71
2019-04-11 22:00:00 7.7 4 Norte 20 Nordeste 0 -- -- 70
2019-04-11 21:00:00 8.7 4 Norte 19 Nordeste 0 -- -- 62
2019-04-11 20:00:00 9.9 8 Nordeste 29 Norte 0 -- -- 56
2019-04-11 19:00:00 12.1 11 Norte 28 Nordeste 0 -- -- 50
2019-04-11 18:00:00 13 9 Noroeste 31 Noroeste 0 -- -- 49
2019-04-11 17:00:00 12.5 8 Norte 35 Norte 0 -- -- 48
2019-04-11 16:00:00 12.2 9 Norte 27 Norte 0 -- -- 49
2019-04-11 15:00:00 13.3 10 Norte 37 Nordeste 0 -- -- 48
2019-04-11 14:00:00 12.6 13 Norte 35 Norte 0 -- -- 48
2019-04-11 13:00:00 11.3 11 Norte 26 Norte 0 -- -- 51
2019-04-11 12:00:00 9.3 11 Oeste 32 Oeste 0 -- -- 57
2019-04-11 11:00:00 8.6 6 Sudoeste 22 Oeste 0 -- -- 63
2019-04-11 10:00:00 6.6 6 Oeste 19 Sudoeste 0 -- -- 74
2019-04-11 09:00:00 3.4 4 Oeste 6 Oeste 0 -- -- 88
2019-04-11 08:00:00 1.5 0 Calma 8 Nordeste 0 -- -- 91
2019-04-11 07:00:00 1.9 3 Nordeste 6 Norte 0 -- -- 91
2019-04-11 06:00:00 3.1 0 Calma 6 Noroeste 0 -- -- 88
2019-04-11 05:00:00 3.8 2 Este 19 Oeste 0 -- -- 83
2019-04-11 04:00:00 4.9 6 Oeste 14 Sudoeste 0 -- -- 79
2019-04-11 03:00:00 5.3 3 Norte 14 Noroeste 0 -- -- 76
2019-04-11 02:00:00 5.3 6 Noroeste 14 Noroeste 0 -- -- 77
2019-04-11 01:00:00 5.8 0 Calma 12 Norte 0 -- -- 75
2019-04-11 00:00:00 6.6 2 Nordeste 9 Norte 0 -- -- 72
2019-04-10 23:00:00 7.3 2 Nordeste 14 Norte 0 -- -- 72
2019-04-10 22:00:00 8.1 4 Norte 16 Norte 0 -- -- 69
2019-04-10 21:00:00 9 3 Norte 13 Norte 0 -- -- 65
2019-04-10 20:00:00 11.1 6 Oeste 17 Oeste 0 -- -- 62
2019-04-10 19:00:00 11 6 Oeste 16 Oeste 0 -- -- 65
2019-04-10 18:00:00 8.7 4 Oeste 24 Oeste 1 -- -- 74
2019-04-10 17:00:00 9.7 8 Oeste 21 Sudoeste 0 -- -- 66
2019-04-10 16:00:00 9.3 9 Oeste 17 Sudoeste 0 -- -- 71
2019-04-10 15:00:00 7.8 8 Oeste 25 Oeste 0.4 -- -- 79
2019-04-10 14:00:00 7.2 6 Norte 32 Nordeste 1.2 -- -- 80
2019-04-10 13:00:00 9.7 13 Oeste 33 Sudoeste 0 -- -- 63
2019-04-10 12:00:00 8.4 10 Oeste 32 Sudoeste 0 -- -- 66
2019-04-10 11:00:00 7.2 11 Oeste 29 Sudoeste 0 -- -- 72
2019-04-10 10:00:00 6.9 11 Oeste 28 Sudoeste 0 -- -- 77
2019-04-10 09:00:00 5.2 4 Sudoeste 9 Sudoeste 0 -- -- 87
2019-04-10 08:00:00 4.4 0 Calma 10 Norte 0 -- -- 89
2019-04-10 07:00:00 4.6 3 Nordeste 12 Nordeste 0 -- -- 88
2019-04-10 06:00:00 4.7 2 Este 9 Sudoeste 0 -- -- 88
2019-04-10 05:00:00 5.3 7 Oeste 16 Sudoeste 0 -- -- 84
2019-04-10 04:00:00 5.5 6 Sudoeste 18 Oeste 0 -- -- 82
2019-04-10 03:00:00 6.1 5 Oeste 17 Oeste 0 -- -- 81
2019-04-10 02:00:00 5.9 6 Sudoeste 23 Oeste 0 -- -- 81
2019-04-10 01:00:00 6.5 3 Este 15 Sudoeste 0.2 -- -- 85
2019-04-10 00:00:00 6.2 3 Sudoeste 10 Nordeste 0 -- -- 86
2019-04-09 23:00:00 6.2 3 Nordeste 9 Oeste 0 -- -- 90
2019-04-09 22:00:00 6.5 2 Sudoeste 15 Oeste 0.2 -- -- 82
2019-04-09 21:00:00 6.3 4 Noroeste 18 Sudoeste 0.4 -- -- 85
2019-04-09 20:00:00 5.8 3 Sudoeste 14 Noroeste 1.8 -- -- 88
2019-04-09 19:00:00 5.8 8 Oeste 35 Sudoeste 1.8 -- -- 89
2019-04-09 18:00:00 8.6 18 Oeste 62 Oeste 0 -- -- 69
2019-04-09 17:00:00 10.1 17 Oeste 40 Oeste 0 -- -- 67
2019-04-09 16:00:00 11.5 15 Sudoeste 33 Sudoeste 0 -- -- 53
2019-04-09 15:00:00 12.1 18 Sudoeste 39 Sudoeste 0 -- -- 51
2019-04-09 14:00:00 11.5 17 Oeste 32 Sudoeste 0 -- -- 53
2019-04-09 13:00:00 10.2 18 Sudoeste 35 Sudoeste 0 -- -- 58
2019-04-09 12:00:00 9.7 19 Sudoeste 35 Sudoeste 0 -- -- 61
2019-04-09 11:00:00 8.4 10 Oeste 22 Sudoeste 0 -- -- 70
2019-04-09 10:00:00 7.6 8 Oeste 16 Sudoeste 0 -- -- 75
2019-04-09 09:00:00 5 0 Calma 6 Nordeste 0.2 -- -- 94
2019-04-09 08:00:00 3.3 2 Nordeste 9 Nordeste 0 -- -- 94
2019-04-09 07:00:00 3.1 0 Calma 9 Este 0 -- -- 93
2019-04-09 06:00:00 3.9 2 Nordeste 7 Este 0 -- -- 91
2019-04-09 05:00:00 5.2 0 Calma 10 Noroeste 0 -- -- 87
2019-04-09 04:00:00 5.8 3 Oeste 11 Sudoeste 0.4 -- -- 85
2019-04-09 03:00:00 6.3 5 Oeste 20 Oeste 0.6 -- -- 84
2019-04-09 02:00:00 6.5 9 Oeste 27 Noroeste 0.4 -- -- 79
2019-04-09 01:00:00 6.9 4 Oeste 19 Oeste 0 -- -- 77
2019-04-09 00:00:00 6.6 7 Oeste 26 Sudoeste 0.4 -- -- 83
2019-04-08 23:00:00 7.3 7 Oeste 26 Oeste 2.6 -- -- 82
2019-04-08 22:00:00 8.9 0 Calma 7 Sudeste 0 -- -- 81
2019-04-08 21:00:00 9.6 0 Calma 4 Sudeste 0 -- -- 83
2019-04-08 20:00:00 10.5 2 Norte 9 Oeste 0.6 -- -- 74
2019-04-08 19:00:00 11.8 2 Oeste 32 Sudoeste 0.6 -- -- 74
2019-04-08 18:00:00 12.3 10 Oeste 26 Sudoeste 0 -- -- 66
2019-04-08 17:00:00 13.6 7 Norte 26 Sudoeste 0 -- -- 61
2019-04-08 16:00:00 13.9 8 Oeste 22 Oeste 0.6 -- -- 64
2019-04-08 15:00:00 13.4 4 Oeste 18 Noroeste 0.2 -- -- 71
2019-04-08 14:00:00 11.3 4 Oeste 14 Norte 0 -- -- 81
2019-04-08 13:00:00 11.6 3 Norte 14 Sudoeste 0 -- -- 74
2019-04-08 12:00:00 11.1 7 Oeste 16 Sudoeste 0 -- -- 74
2019-04-08 11:00:00 9.8 5 Oeste 20 Noroeste 0.2 -- -- 76
2019-04-08 10:00:00 9.5 10 Oeste 19 Sudoeste 0 -- -- 75
2019-04-08 09:00:00 8.7 0 Calma 7 Sur 0 -- -- 77
2019-04-08 08:00:00 7.4 3 Nordeste 6 Nordeste 0 -- -- 83
2019-04-08 07:00:00 7.6 3 Sudoeste 16 Sur 0 -- -- 79
2019-04-08 06:00:00 7.4 4 Sur 21 Sudoeste 0 -- -- 79
2019-04-08 05:00:00 6.8 5 Sur 17 Sudeste 0 -- -- 80
2019-04-08 04:00:00 7 6 Sudeste 16 Sur 0 -- -- 79
2019-04-08 03:00:00 7.1 3 Oeste 9 Oeste 0 -- -- 77
2019-04-08 02:00:00 7.1 2 Sur 25 Sudoeste 0 -- -- 76
2019-04-08 01:00:00 7.4 12 Oeste 26 Sudoeste 0 -- -- 75
2019-04-08 00:00:00 8.1 9 Oeste 22 Sudoeste 0 -- -- 68
2019-04-07 23:00:00 8.8 12 Sudoeste 26 Sudoeste 0 -- -- 61
2019-04-07 22:00:00 8.2 2 Este 6 Nordeste 0 -- -- 66
2019-04-07 21:00:00 9.7 0 Calma 10 Sudoeste 0 -- -- 55
2019-04-07 20:00:00 10.5 7 Sudoeste 16 Sur 0 -- -- 48
2019-04-07 19:00:00 11.2 10 Oeste 24 Oeste 0 -- -- 44
2019-04-07 18:00:00 11.3 9 Oeste 32 Sudoeste 0 -- -- 42
2019-04-07 17:00:00 11.6 15 Oeste 31 Sudoeste 0 -- -- 40
2019-04-07 16:00:00 10.6 16 Oeste 35 Oeste 0 -- -- 44
2019-04-07 15:00:00 10.1 14 Oeste 37 Sudoeste 0 -- -- 49
2019-04-07 14:00:00 8.4 12 Oeste 29 Sudoeste 0 -- -- 56
2019-04-07 13:00:00 7.1 12 Oeste 37 Sudoeste 0 -- -- 60
2019-04-07 12:00:00 6.3 13 Oeste 32 Sudoeste 0 -- -- 62
2019-04-07 11:00:00 5.9 10 Oeste 40 Noroeste 0 -- -- 69
2019-04-07 10:00:00 5.7 10 Oeste 26 Oeste 0 -- -- 72
2019-04-07 09:00:00 4.4 6 Sudoeste 13 Sudoeste 0 -- -- 78
2019-04-07 08:00:00 4 8 Sudoeste 20 Sudoeste 0 -- -- 79
2019-04-07 07:00:00 4.3 3 Noroeste 22 Oeste 0 -- -- 75
2019-04-07 06:00:00 4.7 11 Sudoeste 29 Oeste 0 -- -- 73
2019-04-07 05:00:00 4.7 5 Oeste 33 Sudoeste 0 -- -- 73
2019-04-07 04:00:00 5 17 Sudoeste 32 Oeste 0 -- -- 74
2019-04-07 03:00:00 5 12 Sudoeste 27 Sudoeste 0 -- -- 76
2019-04-07 02:00:00 4.5 4 Sudoeste 21 Oeste 0.2 -- -- 84
2019-04-07 01:00:00 5 12 Sudoeste 22 Sudoeste 0 -- -- 79
2019-04-07 00:00:00 4.9 3 Oeste 15 Sudoeste 0 -- -- 81
2019-04-06 23:00:00 4.7 4 Sudoeste 22 Sur 0 -- -- 80
2019-04-06 22:00:00 4.5 0 Calma 37 Sudoeste 0.6 -- -- 86
2019-04-06 21:00:00 5.1 14 Oeste 34 Oeste 0 -- -- 76
2019-04-06 20:00:00 6 4 Noroeste 19 Oeste 0 -- -- 73
2019-04-06 19:00:00 5.8 9 Oeste 27 Oeste 0 -- -- 75
2019-04-06 18:00:00 5.6 5 Oeste 35 Sudoeste 0.2 -- -- 78
2019-04-06 17:00:00 8.4 17 Sudoeste 39 Sudoeste 0 -- -- 63
2019-04-06 16:00:00 10.1 12 Oeste 36 Noroeste 0 -- -- 50
2019-04-06 15:00:00 9.1 16 Sudoeste 37 Sudoeste 0 -- -- 55
2019-04-06 14:00:00 8.3 15 Sudoeste 41 Sudoeste 0 -- -- 56
2019-04-06 13:00:00 7.3 26 Sudoeste 44 Sudoeste 0 -- -- 60
2019-04-06 12:00:00 6.9 14 Oeste 34 Sudoeste 0 -- -- 61
2019-04-06 11:00:00 6.8 19 Sudoeste 44 Sudoeste 0 -- -- 61
2019-04-06 10:00:00 5 22 Sudoeste 41 Sudoeste 0 -- -- 68
2019-04-06 09:00:00 4 7 Oeste 15 Oeste 0 -- -- 76
2019-04-06 08:00:00 0.8 3 Este 6 Nordeste 0 -- -- 93
2019-04-06 07:00:00 0.8 0 Calma 8 Este 0 -- -- 92
2019-04-06 06:00:00 0.7 4 Este 8 Este 0 -- -- 92
2019-04-06 05:00:00 1.3 3 Nordeste 10 Este 0 -- -- 90
2019-04-06 04:00:00 3.7 7 Oeste 20 Oeste 0 -- -- 77
2019-04-06 03:00:00 4.2 6 Oeste 23 Oeste 0 -- -- 76
2019-04-06 02:00:00 4 2 Norte 14 Oeste 0 -- -- 80
2019-04-06 01:00:00 4.1 8 Oeste 17 Oeste 0 -- -- 79
2019-04-06 00:00:00 3.5 2 Sudeste 17 Oeste 0 -- -- 88
2019-04-05 23:00:00 3.2 9 Oeste 18 Noroeste 0.2 -- -- 86
2019-04-05 22:00:00 4.2 3 Sudoeste 26 Sudoeste 0.6 -- -- 83
2019-04-05 21:00:00 6 9 Oeste 22 Sur 1 -- -- 83
2019-04-05 20:00:00 7.1 3 Norte 10 Noroeste 0 -- -- 80
2019-04-05 19:00:00 7.7 4 Oeste 25 Sudoeste 0 -- -- 75
2019-04-05 18:00:00 8.8 2 Oeste 5 Este 0 -- -- 76
2019-04-05 17:00:00 7.8 2 Noroeste 6 Noroeste 0.2 -- -- 79
2019-04-05 16:00:00 7.2 0 Calma 12 Sudoeste 1.6 -- -- 83
2019-04-05 15:00:00 8.8 2 Sur 21 Oeste 0.4 -- -- 70
2019-04-05 14:00:00 9.2 8 Oeste 18 Sudoeste 0 -- -- 69
2019-04-05 13:00:00 10.1 6 Oeste 27 Sudoeste 0 -- -- 53
2019-04-05 12:00:00 10 9 Sudoeste 31 Oeste 0 -- -- 53
2019-04-05 11:00:00 9.7 7 Oeste 18 Sudoeste 0 -- -- 55
2019-04-05 10:00:00 7.8 6 Oeste 15 Noroeste 0 -- -- 59
2019-04-05 09:00:00 6.6 9 Oeste 28 Oeste 0 -- -- 63
2019-04-05 08:00:00 6.7 13 Oeste 27 Oeste 0 -- -- 60
2019-04-05 07:00:00 7 6 Sudoeste 12 Oeste 0 -- -- 59
2019-04-05 06:00:00 6.8 4 Oeste 18 Noroeste 0 -- -- 74
2019-04-05 05:00:00 6.7 6 Oeste 17 Oeste 0 -- -- 73
2019-04-05 04:00:00 6.7 3 Noroeste 14 Sur 0 -- -- 67
2019-04-05 03:00:00 6.6 7 Sur 18 Sur 0 -- -- 59
2019-04-05 02:00:00 5.6 4 Oeste 12 Sudeste 0 -- -- 57
2019-04-05 01:00:00 5 2 Este 5 Sudeste 0 -- -- 64
2019-04-05 00:00:00 5.7 3 Nordeste 7 Nordeste 0 -- -- 58
2019-04-04 23:00:00 6.8 0 Calma 6 Nordeste 0 -- -- 54
2019-04-04 22:00:00 7.4 2 Nordeste 8 Nordeste 0 -- -- 51
2019-04-04 21:00:00 9.5 0 Calma 12 Sudoeste 0 -- -- 40
2019-04-04 20:00:00 11.4 8 Sudoeste 30 Sudoeste 0 -- -- 30
2019-04-04 19:00:00 12.5 16 Oeste 30 Sudoeste 0 -- -- 29
2019-04-04 18:00:00 13.3 14 Oeste 28 Sudoeste 0 -- -- 29
2019-04-04 17:00:00 12.5 9 Oeste 26 Noroeste 0 -- -- 33
2019-04-04 16:00:00 11.2 5 Sudeste 20 Sudoeste 0 -- -- 37
2019-04-04 15:00:00 9.9 9 Sudoeste 25 Sudoeste 0 -- -- 38
2019-04-04 14:00:00 8.4 7 Oeste 26 Sudoeste 0 -- -- 43
2019-04-04 13:00:00 6.8 10 Oeste 31 Sudoeste 0 -- -- 46
2019-04-04 12:00:00 5.9 6 Noroeste 24 Noroeste 0 -- -- 54
2019-04-04 11:00:00 3.9 9 Oeste 24 Oeste 0 -- -- 64
2019-04-04 10:00:00 2.1 5 Sudoeste 14 Oeste 0 -- -- 75
2019-04-04 09:00:00 -1.3 3 Nordeste 8 Nordeste 0 -- -- 99
2019-04-04 08:00:00 -2.3 0 Calma 7 Sudoeste 0 -- -- 99
2019-04-04 07:00:00 -2 0 Calma 5 Sudoeste 0 -- -- 98
2019-04-04 06:00:00 -1.9 0 Calma 5 Sudoeste 0 -- -- 95
2019-04-04 05:00:00 -1.4 0 Calma 6 Este 0 -- -- 95
2019-04-04 04:00:00 -0.9 2 Nordeste 6 Norte 0 -- -- 95
2019-04-04 03:00:00 -0.5 2 Este 8 Nordeste 0 -- -- 94
2019-04-04 02:00:00 0.2 2 Norte 8 Nordeste 0 -- -- 94
2019-04-04 01:00:00 1.1 3 Este 8 Norte 0.2 -- -- 92
2019-04-04 00:00:00 2.2 4 Nordeste 10 Norte 0 -- -- 92
2019-04-03 23:00:00 2.3 0 Calma 8 Sur 0 -- -- 90
2019-04-03 22:00:00 2.9 3 Norte 17 Norte 0.6 -- -- 88
2019-04-03 21:00:00 3.6 6 Norte 23 Nordeste 0 -- -- 85
2019-04-03 20:00:00 4.5 12 Nordeste 32 Nordeste 0 -- -- 82
2019-04-03 19:00:00 6.1 9 Nordeste 22 Nordeste 0 -- -- 76
2019-04-03 18:00:00 5.6 8 Nordeste 23 Nordeste 0 -- -- 85
2019-04-03 17:00:00 5.8 7 Este 21 Nordeste 0 -- -- 82
2019-04-03 16:00:00 6.1 8 Nordeste 22 Nordeste 0 -- -- 81
2019-04-03 15:00:00 6.9 10 Nordeste 19 Norte 0 -- -- 80
2019-04-03 14:00:00 8.6 4 Norte 11 Nordeste 0 -- -- 76
2019-04-03 13:00:00 9.1 6 Norte 15 Noroeste 0 -- -- 69
2019-04-03 12:00:00 9.8 4 Norte 21 Sudoeste 0 -- -- 69
2019-04-03 11:00:00 9.1 4 Oeste 13 Sudoeste 0 -- -- 73
2019-04-03 10:00:00 8.1 4 Noroeste 10 Noroeste 0 -- -- 87
2019-04-03 09:00:00 7.3 3 Sudoeste 6 Oeste 0 -- -- 88
2019-04-03 08:00:00 6.9 2 Nordeste 7 Nordeste 0 -- -- 90
2019-04-03 07:00:00 6.7 3 Este 7 Nordeste 0 -- -- 90
2019-04-03 06:00:00 6.6 0 Calma 9 Nordeste 0 -- -- 91
2019-04-03 05:00:00 6.1 3 Este 9 Este 0 -- -- 93
2019-04-03 04:00:00 6.1 3 Nordeste 11 Nordeste 0 -- -- 92
2019-04-03 03:00:00 6.4 4 Este 9 Nordeste 0 -- -- 92
2019-04-03 02:00:00 7.4 0 Calma 6 Nordeste 0 -- -- 92
2019-04-03 01:00:00 8.2 2 Este 6 Sudoeste 0 -- -- 91
2019-04-03 00:00:00 8.4 0 Calma 5 Sudoeste 0 -- -- 88
2019-04-02 23:00:00 9 2 Norte 8 Nordeste 0.2 -- -- 88
2019-04-02 22:00:00 9.5 4 Sur 10 Sudeste 0 -- -- 83
2019-04-02 21:00:00 9.8 0 Calma 9 Sudeste 0 -- -- 80
2019-04-02 20:00:00 11.1 3 Sudeste 12 Sudeste 0 -- -- 75
2019-04-02 19:00:00 11.2 4 Sur 15 Sudeste 0.2 -- -- 75
2019-04-02 18:00:00 10.9 0 Calma 14 Oeste 1 -- -- 81
2019-04-02 17:00:00 11.9 9 Norte 40 Nordeste 0.4 -- -- 69
2019-04-02 16:00:00 16.7 8 Oeste 17 Sudoeste 0 -- -- 47
2019-04-02 15:00:00 15.6 9 Sudoeste 17 Sudoeste 0 -- -- 60
2019-04-02 14:00:00 14.1 5 Noroeste 17 Nordeste 0.2 -- -- 63
2019-04-02 13:00:00 13 8 Noroeste 18 Oeste 0 -- -- 67
2019-04-02 12:00:00 12.4 4 Norte 19 Sudoeste 0 -- -- 71
2019-04-02 11:00:00 10.3 3 Oeste 7 Oeste 0 -- -- 87
2019-04-02 10:00:00 9.1 0 Calma 5 Sudeste 0 -- -- 94
2019-04-02 09:00:00 7.3 0 Calma 5 Norte 0 -- -- 96
2019-04-02 08:00:00 7.3 0 Calma 8 Este 0 -- -- 96
2019-04-02 07:00:00 7.5 0 Calma 8 Oeste 0.2 -- -- 96
2019-04-02 06:00:00 7 3 Este 7 Nordeste 0 -- -- 96
2019-04-02 05:00:00 6.4 3 Nordeste 7 Norte 0 -- -- 96
2019-04-02 04:00:00 6.8 0 Calma 5 Nordeste 0 -- -- 94
2019-04-02 03:00:00 7.6 0 Calma 6 Nordeste 0 -- -- 94
2019-04-02 02:00:00 8.3 0 Calma 5 Sudeste 0 -- -- 92
2019-04-02 01:00:00 9.5 0 Calma 7 Sudoeste 0 -- -- 90
2019-04-02 00:00:00 9.8 3 Sur 8 Sudeste 0 -- -- 87
2019-04-01 23:00:00 10 0 Calma 7 Nordeste 0 -- -- 92
2019-04-01 22:00:00 10.3 0 Calma 4 Este 0 -- -- 88
2019-04-01 21:00:00 10.4 0 Calma 8 Este 0 -- -- 87
2019-04-01 20:00:00 10.8 4 Nordeste 13 Nordeste 0 -- -- 85
2019-04-01 19:00:00 11.8 6 Nordeste 14 Nordeste 0.8 -- -- 84
2019-04-01 18:00:00 11.3 5 Nordeste 14 Norte 0.2 -- -- 85
2019-04-01 17:00:00 12.6 3 Nordeste 9 Norte 0 -- -- 80
2019-04-01 16:00:00 12.2 4 Nordeste 10 Sudoeste 4.8 -- -- 83
2019-04-01 15:00:00 13.9 3 Oeste 10 Sur 0 -- -- 63
2019-04-01 14:00:00 13.9 4 Sudoeste 12 Norte 0 -- -- 66
2019-04-01 13:00:00 11.7 3 Norte 10 Sudoeste 0 -- -- 79
2019-04-01 12:00:00 9.9 0 Calma 7 Oeste 0 -- -- 82
2019-04-01 11:00:00 8.4 0 Calma 4 Sudoeste 0 -- -- 88
2019-04-01 10:00:00 7.2 0 Calma 4 Oeste 0 -- -- 91
2019-04-01 09:00:00 6.5 2 Oeste 5 Sudoeste 0.2 -- -- 94
2019-04-01 08:00:00 6.1 0 Calma 4 Sudeste 0 -- -- 95
2019-04-01 07:00:00 6 0 Calma 6 Norte 0.2 -- -- 94
2019-04-01 06:00:00 6.1 3 Nordeste 6 Este 0.2 -- -- 93
2019-04-01 05:00:00 6 2 Nordeste 9 Nordeste 0 -- -- 94
2019-04-01 04:00:00 5.9 0 Calma 15 Nordeste 0.2 -- -- 93
2019-04-01 03:00:00 6.2 7 Nordeste 13 Norte 0.8 -- -- 91
2019-04-01 02:00:00 6.8 0 Calma 6 Norte 1 -- -- 93
2019-04-01 01:00:00 6.8 0 Calma 6 Norte 1 -- -- 93
2019-04-01 00:00:00 6.8 0 Calma 6 Nordeste 1.2 -- -- 94
2019-03-31 23:00:00 6.9 3 Nordeste 11 Este 0.2 -- -- 93
2019-03-31 22:00:00 6.9 3 Nordeste 12 Norte 0.2 -- -- 92
2019-03-31 21:00:00 7.1 3 Nordeste 9 Este 0.2 -- -- 91
2019-03-31 20:00:00 7.3 6 Nordeste 12 Nordeste 1.4 -- -- 90
2019-03-31 19:00:00 7.4 5 Norte 13 Norte 2 -- -- 91
2019-03-31 18:00:00 7.7 3 Norte 15 Nordeste 2.4 -- -- 90
2019-03-31 17:00:00 7.9 6 Nordeste 15 Nordeste 1.6 -- -- 87
2019-03-31 16:00:00 8.4 6 Nordeste 17 Nordeste 1 -- -- 83
2019-03-31 15:00:00 8.8 7 Nordeste 18 Norte 0.2 -- -- 79
2019-03-31 14:00:00 9.2 9 Nordeste 17 Nordeste 0 -- -- 74
2019-03-31 13:00:00 9.8 6 Nordeste 13 Nordeste 0 -- -- 65
2019-03-31 12:00:00 8.4 0 Calma 6 Sudoeste 0 -- -- 68
2019-03-31 11:00:00 6.7 2 Oeste 4 Oeste 0 -- -- 72
2019-03-31 10:00:00 5.2 0 Calma 6 Sudeste 0 -- -- 75
2019-03-31 09:00:00 3.6 2 Este 6 Este 0 -- -- 80
2019-03-31 08:00:00 3.3 3 Nordeste 6 Nordeste 0 -- -- 78
2019-03-31 07:00:00 3.6 0 Calma 8 Nordeste 0 -- -- 76
2019-03-31 06:00:00 3.8 0 Calma 6 Sudeste 0 -- -- 76
2019-03-31 05:00:00 3.4 2 Este 5 Nordeste 0 -- -- 76
2019-03-31 03:00:00 4.5 2 Este 8 Este 0 -- -- 69
2019-03-31 01:00:00 4.9 0 Calma 9 Norte 0 -- -- 65
2019-03-31 00:00:00 5.9 2 Este 8 Este 0 -- -- 60
2019-03-30 23:00:00 7.6 3 Este 9 Norte 0 -- -- 54
2019-03-30 22:00:00 9.1 0 Calma 9 Sudeste 0 -- -- 47
2019-03-30 21:00:00 10.5 0 Calma 12 Nordeste 0 -- -- 43
2019-03-30 20:00:00 12.2 6 Nordeste 24 Nordeste 0 -- -- 38
2019-03-30 19:00:00 14.1 9 Nordeste 30 Nordeste 0 -- -- 34
2019-03-30 18:00:00 15.6 13 Nordeste 30 Nordeste 0 -- -- 32
2019-03-30 17:00:00 17.1 12 Nordeste 26 Norte 0 -- -- 27
2019-03-30 16:00:00 17.6 7 Este 21 Nordeste 0 -- -- 25
2019-03-30 15:00:00 17.4 6 Nordeste 18 Norte 0 -- -- 25
2019-03-30 14:00:00 16.9 8 Noroeste 20 Noroeste 0 -- -- 26
2019-03-30 13:00:00 15.5 5 Este 24 Norte 0 -- -- 29
2019-03-30 12:00:00 13.9 3 Nordeste 11 Este 0 -- -- 30
2019-03-30 11:00:00 11.7 3 Sudoeste 9 Oeste 0 -- -- 35
2019-03-30 10:00:00 9.4 4 Oeste 9 Sudeste 0 -- -- 48
2019-03-30 09:00:00 6 4 Oeste 10 Norte 0 -- -- 62
2019-03-30 08:00:00 2.8 4 Este 9 Nordeste 0 -- -- 74
2019-03-30 07:00:00 1 3 Nordeste 6 Nordeste 0 -- -- 77
2019-03-30 06:00:00 2.5 0 Calma 6 Sur 0 -- -- 72
2019-03-30 05:00:00 4.7 3 Sudoeste 10 Oeste 0 -- -- 67
2019-03-30 04:00:00 4.6 2 Este 9 Sur 0 -- -- 68
2019-03-30 03:00:00 6.1 3 Sudeste 14 Sudeste 0 -- -- 63
2019-03-30 02:00:00 6.8 4 Sur 22 Este 0 -- -- 60
2019-03-30 01:00:00 7.8 8 Sudeste 21 Sudeste 0 -- -- 58
2019-03-30 00:00:00 8.3 6 Sudeste 22 Sur 0 -- -- 57
2019-03-29 23:00:00 9.2 6 Sudeste 18 Sur 0 -- -- 51
2019-03-29 22:00:00 10.5 3 Este 12 Nordeste 0 -- -- 47
2019-03-29 21:00:00 12 4 Nordeste 14 Nordeste 0 -- -- 42
2019-03-29 20:00:00 12.8 7 Nordeste 30 Nordeste 0 -- -- 41
2019-03-29 19:00:00 14.8 11 Este 37 Nordeste 0 -- -- 36
2019-03-29 18:00:00 15.9 17 Este 44 Nordeste 0 -- -- 34
2019-03-29 17:00:00 17.6 13 Este 33 Norte 0 -- -- 28
2019-03-29 16:00:00 18.7 9 Nordeste 22 Nordeste 0 -- -- 21
2019-03-29 15:00:00 18.4 6 Sudeste 20 Sudoeste 0 -- -- 19
2019-03-29 14:00:00 17.3 5 Sudoeste 29 Nordeste 0 -- -- 24
2019-03-29 13:00:00 16.3 8 Sudeste 24 Este 0 -- -- 26
2019-03-29 12:00:00 14.9 5 Sur 22 Oeste 0 -- -- 28
2019-03-29 11:00:00 13.1 8 Sudoeste 24 Oeste 0 -- -- 33
2019-03-29 10:00:00 11.1 5 Sudeste 18 Sudeste 0 -- -- 34
2019-03-29 09:00:00 7 3 Este 13 Sudeste 0 -- -- 44
2019-03-29 08:00:00 1.7 3 Este 7 Este 0 -- -- 70
2019-03-29 07:00:00 0.1 2 Nordeste 6 Sudeste 0 -- -- 75
2019-03-29 06:00:00 0.6 2 Este 6 Nordeste 0 -- -- 74
2019-03-29 05:00:00 1.6 2 Nordeste 9 Este 0 -- -- 71
2019-03-29 04:00:00 2.1 3 Este 8 Nordeste 0 -- -- 70
2019-03-29 03:00:00 2.9 3 Este 7 Nordeste 0 -- -- 66
2019-03-29 02:00:00 5.1 3 Nordeste 7 Nordeste 0 -- -- 62
2019-03-29 01:00:00 3.5 0 Calma 5 Este 0 -- -- 62
2019-03-29 00:00:00 4.3 2 Este 8 Nordeste 0 -- -- 59
2019-03-28 23:00:00 5.8 2 Este 7 Sudeste 0 -- -- 55
2019-03-28 22:00:00 7.6 2 Este 5 Nordeste 0 -- -- 50
2019-03-28 21:00:00 10.1 4 Nordeste 8 Este 0 -- -- 44
2019-03-28 20:00:00 11.9 5 Este 17 Nordeste 0 -- -- 40
2019-03-28 19:00:00 14.4 7 Nordeste 21 Este 0 -- -- 34
2019-03-28 18:00:00 16.3 10 Nordeste 19 Este 0 -- -- 31
2019-03-28 17:00:00 17.4 8 Nordeste 21 Nordeste 0 -- -- 31
2019-03-28 16:00:00 17.6 6 Nordeste 19 Nordeste 0 -- -- 29
2019-03-28 15:00:00 18 4 Nordeste 17 Este 0 -- -- 21
2019-03-28 14:00:00 16.9 8 Nordeste 17 Oeste 0 -- -- 23
2019-03-28 13:00:00 15 10 Sudoeste 21 Sudoeste 0 -- -- 26
2019-03-28 12:00:00 13 3 Norte 10 Sudoeste 0 -- -- 32
2019-03-28 11:00:00 10.9 0 Calma 6 Nordeste 0 -- -- 38
2019-03-28 10:00:00 7.5 0 Calma 7 Oeste 0 -- -- 49
2019-03-28 09:00:00 3.2 3 Oeste 10 Noroeste 0 -- -- 53
2019-03-28 08:00:00 -1.1 0 Calma 5 Este 0 -- -- 70
2019-03-28 07:00:00 -2.1 0 Calma 5 Nordeste 0 -- -- 71
2019-03-28 06:00:00 -1.6 0 Calma 6 Este 0 -- -- 70
2019-03-28 05:00:00 -0.8 3 Este 6 Este 0 -- -- 65
2019-03-28 04:00:00 -0.2 3 Nordeste 7 Norte 0 -- -- 64
2019-03-28 03:00:00 0.4 3 Este 8 Nordeste 0 -- -- 60
2019-03-28 02:00:00 2 3 Nordeste 10 Nordeste 0 -- -- 54
2019-03-28 01:00:00 3.6 3 Nordeste 5 Nordeste 0 -- -- 50
2019-03-28 00:00:00 4.5 0 Calma 7 Nordeste 0 -- -- 47
2019-03-27 23:00:00 5.2 4 Nordeste 8 Nordeste 0 -- -- 42
2019-03-27 22:00:00 7.2 4 Este 8 Nordeste 0 -- -- 35
2019-03-27 21:00:00 9.9 0 Calma 8 Nordeste 0 -- -- 29
2019-03-27 20:00:00 11.7 3 Nordeste 12 Nordeste 0 -- -- 26
2019-03-27 19:00:00 15 6 Norte 22 Norte 0 -- -- 21
2019-03-27 18:00:00 16.4 6 Nordeste 21 Este 0 -- -- 20
2019-03-27 17:00:00 16.8 8 Nordeste 22 Nordeste 0 -- -- 18
2019-03-27 16:00:00 17.2 7 Nordeste 23 Nordeste 0 -- -- 17
2019-03-27 15:00:00 16.9 7 Este 20 Nordeste 0 -- -- 22
2019-03-27 14:00:00 15.7 8 Nordeste 17 Norte 0 -- -- 24
2019-03-27 13:00:00 13.6 8 Oeste 15 Sur 0 -- -- 30
2019-03-27 12:00:00 11.5 6 Oeste 12 Sudoeste 0 -- -- 34
2019-03-27 11:00:00 9.7 3 Sudoeste 9 Noroeste 0 -- -- 37
2019-03-27 10:00:00 6.8 4 Oeste 9 Oeste 0 -- -- 43
2019-03-27 09:00:00 2.9 0 Calma 3 Noroeste 0 -- -- 55
2019-03-27 08:00:00 -1.8 0 Calma 8 Nordeste 0 -- -- 68
2019-03-27 07:00:00 -2.9 0 Calma 6 Sudeste 0 -- -- 70
2019-03-27 06:00:00 -2.7 3 Este 6 Nordeste 0 -- -- 69
2019-03-27 05:00:00 -2.1 3 Nordeste 8 Este 0 -- -- 66
2019-03-27 04:00:00 -1.6 2 Este 8 Este 0 -- -- 64
2019-03-27 03:00:00 -0.4 2 Nordeste 9 Norte 0 -- -- 60
2019-03-27 02:00:00 0.8 0 Calma 7 Nordeste 0 -- -- 57
2019-03-27 01:00:00 1.6 5 Norte 9 Nordeste 0 -- -- 54
2019-03-27 00:00:00 3.1 4 Este 9 Nordeste 0 -- -- 50